Time;durP1;ratioP1;P1;durP2;ratioP2;P2;SDS_P1;SDS_P2;PMS_P1;PMS_P2;Temp;Humidity;BMP_temperature;BMP_pressure;BME280_temperature;BME280_humidity;BME280_pressure;Samples;Min_cycle;Max_cycle;Signal;HPM_P1;HPM_P2
2022/03/03 00:02:19;;;;;;;;;;;21.00;45.70;;;;;;5067528;23;20012;-70
2022/03/03 00:04:44;;;;;;;;;;;21.00;45.20;;;;;;5067739;22;19932;-55
2022/03/03 00:07:10;;;;;;;;;;;21.10;45.40;;;;;;5079747;28;19920;-54
2022/03/03 00:09:35;;;;;;;;;;;21.10;45.20;;;;;;5081111;28;20068;-55
2022/03/03 00:12:00;;;;;;;;;;;21.10;44.90;;;;;;5079325;28;19920;-55
2022/03/03 00:14:26;;;;;;;;;;;21.00;44.90;;;;;;5078079;28;19916;-55
2022/03/03 00:16:51;;;;;;;;;;;21.00;44.80;;;;;;5078812;28;19916;-55
2022/03/03 00:19:17;;;;;;;;;;;21.00;44.80;;;;;;5080183;28;20037;-55
2022/03/03 00:21:42;;;;;;;;;;;21.00;44.90;;;;;;5080322;28;20375;-54
2022/03/03 00:24:08;;;;;;;;;;;20.90;44.90;;;;;;5078975;28;20370;-54
2022/03/03 00:26:33;;;;;;;;;;;20.90;44.80;;;;;;5079106;28;20007;-55
2022/03/03 00:28:59;;;;;;;;;;;20.90;45.00;;;;;;5081252;28;19926;-55
2022/03/03 00:31:24;;;;;;;;;;;20.80;44.80;;;;;;5081326;28;20331;-54
2022/03/03 00:33:50;;;;;;;;;;;20.80;44.70;;;;;;5079382;28;19913;-54
2022/03/03 00:36:15;;;;;;;;;;;20.70;44.70;;;;;;5079329;28;19920;-54
2022/03/03 00:38:41;;;;;;;;;;;20.70;45.00;;;;;;5080527;28;20267;-54
2022/03/03 00:41:06;;;;;;;;;;;20.70;44.90;;;;;;5081189;28;19916;-54
2022/03/03 00:43:32;;;;;;;;;;;20.60;44.90;;;;;;5081649;28;19948;-55
2022/03/03 00:45:57;;;;;;;;;;;20.60;44.80;;;;;;5080378;28;19938;-54
2022/03/03 00:48:23;;;;;;;;;;;20.60;44.70;;;;;;5079546;28;19912;-55
2022/03/03 00:50:48;;;;;;;;;;;20.60;44.60;;;;;;5082603;28;19931;-54
2022/03/03 00:53:13;;;;;;;;;;;20.50;44.60;;;;;;5076476;28;19916;-55
2022/03/03 00:55:39;;;;;;;;;;;20.50;44.60;;;;;;5080412;28;19912;-54
2022/03/03 00:58:04;;;;;;;;;;;20.50;44.80;;;;;;5076199;28;19956;-55
2022/03/03 01:00:30;;;;;;;;;;;20.40;44.70;;;;;;5080333;28;19973;-55
2022/03/03 01:02:55;;;;;;;;;;;20.40;45.40;;;;;;5080698;28;19947;-55
2022/03/03 01:05:21;;;;;;;;;;;20.40;44.70;;;;;;5064652;28;19979;-54
2022/03/03 01:07:46;;;;;;;;;;;20.40;44.70;;;;;;5063127;28;20367;-55
2022/03/03 01:10:12;;;;;;;;;;;20.40;44.70;;;;;;5063201;28;19940;-55
2022/03/03 01:12:37;;;;;;;;;;;20.30;44.70;;;;;;5066278;28;19912;-55
2022/03/03 01:15:04;;;;;;;;;;;20.30;44.70;;;;;;5066165;28;19912;-54
2022/03/03 01:17:29;;;;;;;;;;;20.30;44.70;;;;;;5069499;28;19913;-54
2022/03/03 01:19:54;;;;;;;;;;;20.30;44.70;;;;;;5072394;28;19909;-54
2022/03/03 01:22:20;;;;;;;;;;;20.30;44.50;;;;;;5063250;28;20012;-54
2022/03/03 01:24:45;;;;;;;;;;;20.30;44.60;;;;;;5072739;28;19958;-54
2022/03/03 01:27:11;;;;;;;;;;;20.30;44.70;;;;;;5072126;28;19942;-54
2022/03/03 01:29:37;;;;;;;;;;;20.20;44.60;;;;;;5072946;28;19955;-55
2022/03/03 01:32:02;;;;;;;;;;;20.20;44.60;;;;;;5071921;28;20283;-55
2022/03/03 01:34:28;;;;;;;;;;;20.10;44.50;;;;;;5069130;28;19916;-55
2022/03/03 01:36:53;;;;;;;;;;;20.10;44.50;;;;;;5071412;28;19917;-54
2022/03/03 01:39:18;;;;;;;;;;;20.10;44.60;;;;;;5072137;28;19915;-53
2022/03/03 01:41:44;;;;;;;;;;;20.10;44.50;;;;;;5068857;28;19970;-54
2022/03/03 01:44:10;;;;;;;;;;;20.10;44.60;;;;;;5071832;28;19909;-54
2022/03/03 01:46:35;;;;;;;;;;;20.10;44.50;;;;;;5064934;28;19909;-54
2022/03/03 01:49:01;;;;;;;;;;;20.10;44.60;;;;;;5067046;28;19916;-54
2022/03/03 01:51:26;;;;;;;;;;;20.10;44.50;;;;;;5072812;28;19919;-54
2022/03/03 01:53:52;;;;;;;;;;;20.10;44.50;;;;;;5070122;28;19916;-54
2022/03/03 01:56:17;;;;;;;;;;;20.00;44.40;;;;;;5053521;28;19909;-54
2022/03/03 01:58:43;;;;;;;;;;;20.00;44.60;;;;;;5071006;28;20282;-53
2022/03/03 02:01:08;;;;;;;;;;;20.00;44.50;;;;;;5069914;28;20019;-54
2022/03/03 02:03:34;;;;;;;;;;;20.00;44.50;;;;;;5072782;28;20290;-54
2022/03/03 02:05:59;;;;;;;;;;;20.00;44.50;;;;;;5069946;28;19981;-54
2022/03/03 02:08:25;;;;;;;;;;;19.90;44.70;;;;;;5069585;28;19968;-54
2022/03/03 02:10:50;;;;;;;;;;;19.90;44.60;;;;;;5076736;28;19912;-54
2022/03/03 02:13:16;;;;;;;;;;;19.90;44.60;;;;;;5075957;28;20372;-54
2022/03/03 02:15:46;;;;;;;;;;;19.90;44.80;;;;;;5076547;28;19912;-54
2022/03/03 02:18:12;;;;;;;;;;;20.00;45.50;;;;;;5071832;28;20022;-54
2022/03/03 02:20:37;;;;;;;;;;;20.10;44.90;;;;;;5073558;28;19922;-54
2022/03/03 02:23:03;;;;;;;;;;;20.30;45.30;;;;;;5068916;28;20085;-54
2022/03/03 02:25:28;;;;;;;;;;;20.40;44.80;;;;;;5072135;28;19908;-54
2022/03/03 02:27:54;;;;;;;;;;;20.50;44.80;;;;;;5066631;28;19912;-55
2022/03/03 02:30:19;;;;;;;;;;;20.70;44.30;;;;;;5075241;28;19908;-55
2022/03/03 02:32:44;;;;;;;;;;;21.00;44.10;;;;;;5073724;28;20326;-55
2022/03/03 02:35:10;;;;;;;;;;;21.30;43.90;;;;;;5071689;28;19916;-55
2022/03/03 02:37:36;;;;;;;;;;;21.60;43.60;;;;;;5067581;28;20012;-55
2022/03/03 02:40:06;;;;;;;;;;;22.00;43.00;;;;;;5057324;28;19913;-55
2022/03/03 02:42:31;;;;;;;;;;;22.30;42.50;;;;;;5065023;28;19921;-55
2022/03/03 02:44:57;;;;;;;;;;;22.70;42.30;;;;;;5074182;28;19919;-55
2022/03/03 02:47:22;;;;;;;;;;;23.00;41.90;;;;;;5071248;28;19919;-55
2022/03/03 02:49:47;;;;;;;;;;;23.10;41.30;;;;;;5068671;28;19962;-55
2022/03/03 02:52:13;;;;;;;;;;;23.30;41.10;;;;;;5070011;28;19939;-55
2022/03/03 02:54:39;;;;;;;;;;;23.40;40.90;;;;;;5068603;28;20311;-55
2022/03/03 02:59:48;;;;;;;;;;;23.50;40.50;;;;;;5070606;28;19923;-55
2022/03/03 03:02:14;;;;;;;;;;;23.60;40.40;;;;;;5062759;28;19925;-55
2022/03/03 03:04:39;;;;;;;;;;;23.70;40.40;;;;;;5070334;28;19920;-54
2022/03/03 03:07:05;;;;;;;;;;;23.70;40.30;;;;;;5072727;28;20011;-54
2022/03/03 03:09:30;;;;;;;;;;;23.70;40.20;;;;;;5070795;28;20006;-55
2022/03/03 03:11:56;;;;;;;;;;;23.70;40.20;;;;;;5073236;28;19923;-55
2022/03/03 03:14:21;;;;;;;;;;;23.70;40.30;;;;;;5068845;28;19916;-56
2022/03/03 03:16:47;;;;;;;;;;;23.70;40.40;;;;;;5073803;28;19995;-56
2022/03/03 03:19:12;;;;;;;;;;;23.60;40.40;;;;;;5063845;28;19913;-55
2022/03/03 03:21:37;;;;;;;;;;;23.50;40.50;;;;;;5072590;28;20323;-55
2022/03/03 03:24:03;;;;;;;;;;;23.50;40.80;;;;;;5060881;28;19948;-54
2022/03/03 03:26:29;;;;;;;;;;;23.40;40.80;;;;;;5069720;28;19913;-54
2022/03/03 03:28:54;;;;;;;;;;;23.30;41.00;;;;;;5071962;28;19918;-55
2022/03/03 03:31:20;;;;;;;;;;;23.20;41.10;;;;;;5067492;28;19956;-56
2022/03/03 03:33:45;;;;;;;;;;;23.20;41.30;;;;;;5071154;28;19923;-55
2022/03/03 03:36:11;;;;;;;;;;;23.10;41.30;;;;;;5073883;28;19912;-57
2022/03/03 03:38:36;;;;;;;;;;;23.10;41.50;;;;;;5071670;28;19919;-54
2022/03/03 03:41:01;;;;;;;;;;;23.10;41.50;;;;;;5073265;28;19966;-55
2022/03/03 03:43:27;;;;;;;;;;;23.10;41.40;;;;;;5071739;28;19916;-55
2022/03/03 03:45:52;;;;;;;;;;;23.00;41.30;;;;;;5070418;28;19912;-55
2022/03/03 03:48:18;;;;;;;;;;;23.00;41.50;;;;;;5064150;28;19925;-55
2022/03/03 03:50:43;;;;;;;;;;;22.90;41.50;;;;;;5065066;28;20016;-55
2022/03/03 03:53:10;;;;;;;;;;;22.80;41.50;;;;;;5072637;28;20360;-55
2022/03/03 03:55:35;;;;;;;;;;;22.80;41.80;;;;;;5073563;28;19916;-55
2022/03/03 03:58:01;;;;;;;;;;;22.80;41.80;;;;;;5070921;28;20332;-54
2022/03/03 04:00:26;;;;;;;;;;;22.80;41.70;;;;;;5068362;28;19908;-55
2022/03/03 04:02:51;;;;;;;;;;;22.90;41.60;;;;;;5072303;28;19921;-55
2022/03/03 04:05:17;;;;;;;;;;;23.10;41.60;;;;;;5068660;28;19920;-56
2022/03/03 04:07:42;;;;;;;;;;;23.10;41.30;;;;;;5064521;28;19913;-55
2022/03/03 04:10:08;;;;;;;;;;;23.20;41.10;;;;;;5065917;28;19917;-55
2022/03/03 04:12:34;;;;;;;;;;;23.30;41.00;;;;;;5072285;28;19915;-56
2022/03/03 04:14:59;;;;;;;;;;;23.40;40.90;;;;;;5066945;28;19913;-56
2022/03/03 04:17:24;;;;;;;;;;;23.40;40.70;;;;;;5070420;28;19923;-55
2022/03/03 04:19:50;;;;;;;;;;;23.50;40.70;;;;;;5063117;28;19916;-55
2022/03/03 04:22:15;;;;;;;;;;;23.50;40.60;;;;;;5062268;28;19936;-56
2022/03/03 04:24:41;;;;;;;;;;;23.50;40.60;;;;;;5071605;28;19923;-56
2022/03/03 04:27:06;;;;;;;;;;;23.50;40.60;;;;;;5068098;28;19913;-54
2022/03/03 04:29:32;;;;;;;;;;;23.50;40.50;;;;;;5070387;28;19917;-56
2022/03/03 04:31:58;;;;;;;;;;;23.50;40.50;;;;;;5070969;28;20351;-56
2022/03/03 04:34:23;;;;;;;;;;;23.50;40.50;;;;;;5069312;28;20303;-56
2022/03/03 04:36:49;;;;;;;;;;;23.50;40.60;;;;;;5069092;28;19956;-54
2022/03/03 04:39:14;;;;;;;;;;;23.50;40.60;;;;;;5064780;28;19959;-55
2022/03/03 04:41:40;;;;;;;;;;;23.50;40.60;;;;;;5068813;28;19920;-54
2022/03/03 04:44:05;;;;;;;;;;;23.50;40.50;;;;;;5061403;28;19928;-56
2022/03/03 04:46:31;;;;;;;;;;;23.50;40.50;;;;;;5069032;28;19920;-54
2022/03/03 04:48:59;;;;;;;;;;;23.50;40.50;;;;;;5067202;28;19921;-54
2022/03/03 04:51:25;;;;;;;;;;;23.50;40.50;;;;;;5068453;28;19920;-56
2022/03/03 04:53:51;;;;;;;;;;;23.50;40.40;;;;;;5068456;28;20388;-54
2022/03/03 04:56:16;;;;;;;;;;;23.60;40.50;;;;;;5060574;28;19998;-56
2022/03/03 04:58:42;;;;;;;;;;;23.60;40.40;;;;;;5065185;28;19917;-55
2022/03/03 05:01:08;;;;;;;;;;;23.60;40.50;;;;;;5055479;28;19917;-56
2022/03/03 05:03:34;;;;;;;;;;;23.50;40.30;;;;;;5064238;28;20312;-55
2022/03/03 05:05:59;;;;;;;;;;;23.70;40.40;;;;;;5065860;28;19971;-55
2022/03/03 05:08:25;;;;;;;;;;;23.60;40.40;;;;;;5068175;28;19951;-56
2022/03/03 05:10:50;;;;;;;;;;;23.60;40.30;;;;;;5072102;28;19959;-56
2022/03/03 05:13:16;;;;;;;;;;;23.60;40.30;;;;;;5065643;28;19916;-55
2022/03/03 05:15:42;;;;;;;;;;;23.60;40.30;;;;;;5072202;28;19995;-56
2022/03/03 05:18:07;;;;;;;;;;;23.60;40.30;;;;;;5071191;28;20294;-55
2022/03/03 05:20:32;;;;;;;;;;;23.60;40.40;;;;;;5072265;28;20286;-56
2022/03/03 05:22:58;;;;;;;;;;;23.50;40.20;;;;;;5067385;28;19964;-55
2022/03/03 05:25:23;;;;;;;;;;;23.60;40.40;;;;;;5071852;28;19923;-55
2022/03/03 05:27:50;;;;;;;;;;;23.60;41.00;;;;;;5063819;28;19913;-55
2022/03/03 05:30:15;;;;;;;;;;;23.60;40.40;;;;;;5072131;28;20355;-55
2022/03/03 05:32:41;;;;;;;;;;;23.60;40.30;;;;;;5074041;28;19966;-55
2022/03/03 05:35:07;;;;;;;;;;;23.60;40.40;;;;;;5070504;28;19916;-57
2022/03/03 05:37:33;;;;;;;;;;;23.60;40.40;;;;;;5075176;28;19920;-56
2022/03/03 05:39:59;;;;;;;;;;;23.50;40.20;;;;;;5073416;28;19977;-55
2022/03/03 05:42:24;;;;;;;;;;;23.50;40.30;;;;;;5074585;28;19917;-55
2022/03/03 05:44:50;;;;;;;;;;;23.50;40.40;;;;;;5067658;28;20283;-56
2022/03/03 05:47:16;;;;;;;;;;;23.50;40.20;;;;;;5068049;28;20033;-55
2022/03/03 05:49:42;;;;;;;;;;;23.50;40.30;;;;;;5070763;28;20295;-56
2022/03/03 05:52:09;;;;;;;;;;;23.50;40.30;;;;;;5070297;28;19924;-55
2022/03/03 05:54:35;;;;;;;;;;;23.50;40.40;;;;;;5071553;28;19920;-55
2022/03/03 05:57:01;;;;;;;;;;;23.50;40.30;;;;;;5072133;28;19942;-55
2022/03/03 05:59:26;;;;;;;;;;;23.50;40.20;;;;;;5073586;28;19920;-56
2022/03/03 06:01:52;;;;;;;;;;;23.60;40.30;;;;;;5070504;28;19925;-55
2022/03/03 06:04:18;;;;;;;;;;;23.60;40.10;;;;;;5066251;28;19925;-55
2022/03/03 06:06:54;;;;;;;;;;;23.70;40.20;;;;;;5063503;28;20539;-55
2022/03/03 06:09:22;;;;;;;;;;;23.70;40.10;;;;;;5070812;28;19920;-56
2022/03/03 06:11:48;;;;;;;;;;;23.70;40.00;;;;;;5070038;28;19977;-55
2022/03/03 06:14:15;;;;;;;;;;;23.70;40.00;;;;;;5074774;28;20429;-55
2022/03/03 06:16:42;;;;;;;;;;;23.70;40.70;;;;;;5075200;28;19919;-55
2022/03/03 06:19:07;;;;;;;;;;;23.70;40.00;;;;;;5072288;28;19920;-55
2022/03/03 06:21:32;;;;;;;;;;;23.70;40.00;;;;;;5072365;28;19923;-55
2022/03/03 06:23:58;;;;;;;;;;;23.70;39.90;;;;;;5059749;28;20265;-55
2022/03/03 06:26:25;;;;;;;;;;;23.70;40.00;;;;;;5072986;28;19912;-55
2022/03/03 06:28:51;;;;;;;;;;;23.70;40.00;;;;;;5070096;28;19923;-55
2022/03/03 06:31:16;;;;;;;;;;;23.70;40.00;;;;;;5069500;28;19913;-55
2022/03/03 06:33:42;;;;;;;;;;;23.70;39.90;;;;;;5074166;28;19920;-54
2022/03/03 06:36:08;;;;;;;;;;;23.70;39.90;;;;;;5072454;28;19912;-54
2022/03/03 06:38:33;;;;;;;;;;;23.70;39.80;;;;;;5067272;28;19912;-55
2022/03/03 06:40:59;;;;;;;;;;;23.60;39.80;;;;;;5070793;28;20003;-55
2022/03/03 06:43:25;;;;;;;;;;;23.60;39.80;;;;;;5066906;28;19959;-55
2022/03/03 06:45:50;;;;;;;;;;;23.60;39.70;;;;;;5067901;28;19970;-55
2022/03/03 06:48:16;;;;;;;;;;;23.60;39.70;;;;;;5073964;28;19916;-54
2022/03/03 06:50:42;;;;;;;;;;;23.60;39.70;;;;;;5066187;28;19916;-54
2022/03/03 06:53:07;;;;;;;;;;;23.60;39.70;;;;;;5064116;28;19990;-55
2022/03/03 06:55:33;;;;;;;;;;;23.60;39.70;;;;;;5069970;28;19952;-55
2022/03/03 06:57:59;;;;;;;;;;;23.70;39.60;;;;;;5073320;28;19932;-55
2022/03/03 07:00:28;;;;;;;;;;;23.60;39.50;;;;;;5073501;28;19920;-55
2022/03/03 07:02:53;;;;;;;;;;;23.60;39.40;;;;;;5071753;28;19924;-54
2022/03/03 07:05:20;;;;;;;;;;;23.60;39.30;;;;;;5069103;28;20327;-55
2022/03/03 07:07:46;;;;;;;;;;;23.70;39.40;;;;;;5067021;28;19912;-55
2022/03/03 07:10:12;;;;;;;;;;;23.70;39.50;;;;;;5069367;28;19981;-54
2022/03/03 07:12:37;;;;;;;;;;;23.70;39.50;;;;;;5066809;28;19951;-55
2022/03/03 07:15:03;;;;;;;;;;;23.70;39.50;;;;;;5064400;28;19916;-54
2022/03/03 07:17:44;;;;;;;;;;;23.70;39.50;;;;;;5071101;28;19912;-54
2022/03/03 07:20:10;;;;;;;;;;;23.60;39.60;;;;;;5066455;28;20367;-54
2022/03/03 07:22:39;;;;;;;;;;;23.70;39.70;;;;;;5068890;28;19927;-54
2022/03/03 07:25:06;;;;;;;;;;;23.70;39.60;;;;;;5071013;28;20402;-54
2022/03/03 07:27:32;;;;;;;;;;;23.70;39.70;;;;;;5066724;28;19963;-54
2022/03/03 07:29:58;;;;;;;;;;;23.80;39.70;;;;;;5070284;28;19909;-55
2022/03/03 07:32:34;;;;;;;;;;;23.90;39.30;;;;;;5061550;28;19962;-54
2022/03/03 07:35:01;;;;;;;;;;;24.00;39.00;;;;;;5064791;28;19913;-55
2022/03/03 07:37:47;;;;;;;;;;;24.20;38.70;;;;;;5063721;28;19912;-54
2022/03/03 07:40:12;;;;;;;;;;;24.30;38.40;;;;;;5062176;28;19927;-54
2022/03/03 07:42:39;;;;;;;;;;;24.50;38.30;;;;;;5066879;28;20342;-54
2022/03/03 07:45:05;;;;;;;;;;;24.60;38.10;;;;;;5063013;28;19920;-53
2022/03/03 07:47:30;;;;;;;;;;;24.70;38.00;;;;;;5063966;28;20260;-53
2022/03/03 07:49:56;;;;;;;;;;;24.70;37.90;;;;;;5069328;28;19913;-53
2022/03/03 07:52:22;;;;;;;;;;;24.80;37.80;;;;;;5066155;28;20079;-53
2022/03/03 07:54:47;;;;;;;;;;;24.90;37.90;;;;;;5065212;28;19912;-54
2022/03/03 07:57:13;;;;;;;;;;;24.90;37.60;;;;;;5063038;28;19912;-54
2022/03/03 07:59:39;;;;;;;;;;;24.90;37.50;;;;;;5059061;28;19962;-53
2022/03/03 08:02:05;;;;;;;;;;;25.00;37.60;;;;;;5068281;28;19916;-54
2022/03/03 08:04:31;;;;;;;;;;;25.00;37.60;;;;;;5066113;28;20418;-54
2022/03/03 08:06:59;;;;;;;;;;;25.00;37.60;;;;;;5068459;28;19917;-53
2022/03/03 08:09:25;;;;;;;;;;;25.00;37.60;;;;;;5071339;28;20007;-54
2022/03/03 08:11:51;;;;;;;;;;;25.00;37.60;;;;;;5067850;28;19999;-54
2022/03/03 08:14:16;;;;;;;;;;;24.90;37.60;;;;;;5067502;28;19923;-54
2022/03/03 08:16:44;;;;;;;;;;;25.00;37.60;;;;;;5068893;28;19916;-54
2022/03/03 08:19:10;;;;;;;;;;;25.00;37.60;;;;;;5069712;28;20396;-54
2022/03/03 08:21:36;;;;;;;;;;;25.00;37.60;;;;;;5062940;28;20011;-54
2022/03/03 08:24:02;;;;;;;;;;;24.90;37.50;;;;;;5071080;28;19952;-54
2022/03/03 08:26:29;;;;;;;;;;;24.90;37.50;;;;;;5065652;28;20128;-54
2022/03/03 08:28:55;;;;;;;;;;;24.90;37.50;;;;;;5068625;28;19999;-54
2022/03/03 08:31:23;;;;;;;;;;;24.90;37.50;;;;;;5064617;28;19978;-54
2022/03/03 08:33:52;;;;;;;;;;;24.90;37.50;;;;;;5068067;28;19915;-54
2022/03/03 08:36:21;;;;;;;;;;;24.90;37.50;;;;;;5070351;28;19939;-54
2022/03/03 08:38:48;;;;;;;;;;;24.90;37.50;;;;;;5067636;28;19940;-54
2022/03/03 08:41:13;;;;;;;;;;;25.00;37.60;;;;;;5072388;28;19978;-54
2022/03/03 08:43:38;;;;;;;;;;;25.00;37.60;;;;;;5069606;28;20402;-55
2022/03/03 08:46:05;;;;;;;;;;;25.00;37.60;;;;;;5068642;28;19912;-55
2022/03/03 08:48:31;;;;;;;;;;;25.00;37.60;;;;;;5068841;28;20500;-55
2022/03/03 08:50:57;;;;;;;;;;;25.00;37.60;;;;;;5071325;28;19936;-54
2022/03/03 08:53:22;;;;;;;;;;;25.00;37.60;;;;;;5067472;28;19913;-54
2022/03/03 08:55:48;;;;;;;;;;;25.00;37.60;;;;;;5055044;28;19989;-54
2022/03/03 08:58:14;;;;;;;;;;;25.00;37.60;;;;;;5068799;28;19920;-62
2022/03/03 09:00:40;;;;;;;;;;;24.90;37.50;;;;;;5070774;28;19919;-54
2022/03/03 09:03:05;;;;;;;;;;;24.90;37.60;;;;;;5069856;28;20332;-54
2022/03/03 09:05:30;;;;;;;;;;;24.90;37.70;;;;;;5068080;28;19925;-55
2022/03/03 09:07:56;;;;;;;;;;;24.90;37.80;;;;;;5073004;28;20364;-55
2022/03/03 09:10:21;;;;;;;;;;;24.90;37.90;;;;;;5065248;28;20003;-54
2022/03/03 09:12:47;;;;;;;;;;;24.90;37.90;;;;;;5070727;28;19916;-54
2022/03/03 09:15:12;;;;;;;;;;;24.90;38.10;;;;;;5074947;28;19944;-54
2022/03/03 09:17:38;;;;;;;;;;;24.90;38.10;;;;;;5075817;28;19912;-54
2022/03/03 09:20:04;;;;;;;;;;;24.90;38.10;;;;;;5075803;28;19934;-54
2022/03/03 09:22:29;;;;;;;;;;;24.80;38.30;;;;;;5076042;28;19913;-54
2022/03/03 09:24:55;;;;;;;;;;;24.80;38.30;;;;;;5073209;28;20007;-54
2022/03/03 09:27:21;;;;;;;;;;;24.80;38.30;;;;;;5069333;28;19970;-54
2022/03/03 09:29:46;;;;;;;;;;;24.80;38.20;;;;;;5066548;28;19908;-54
2022/03/03 09:32:13;;;;;;;;;;;24.80;38.20;;;;;;5075489;28;19928;-54
2022/03/03 09:34:39;;;;;;;;;;;24.80;38.20;;;;;;5071273;28;20321;-54
2022/03/03 09:37:04;;;;;;;;;;;24.90;38.20;;;;;;5074730;28;19987;-55
2022/03/03 09:39:29;;;;;;;;;;;24.90;38.20;;;;;;5072660;28;20000;-54
2022/03/03 09:41:55;;;;;;;;;;;24.90;38.10;;;;;;5075816;28;20382;-54
2022/03/03 09:44:24;;;;;;;;;;;24.90;38.10;;;;;;5073920;28;19912;-55
2022/03/03 09:46:49;;;;;;;;;;;24.90;38.00;;;;;;5068295;28;20467;-55
2022/03/03 09:49:16;;;;;;;;;;;24.90;38.00;;;;;;5062599;28;19920;-54
2022/03/03 09:51:41;;;;;;;;;;;25.00;38.00;;;;;;5066727;28;19912;-54
2022/03/03 09:54:07;;;;;;;;;;;25.00;38.00;;;;;;5068631;28;19920;-55
2022/03/03 09:56:32;;;;;;;;;;;24.90;37.80;;;;;;5060440;28;20932;-55
2022/03/03 09:58:57;;;;;;;;;;;24.90;37.80;;;;;;5074258;28;19927;-55
2022/03/03 10:01:29;;;;;;;;;;;25.00;37.70;;;;;;5072750;28;19966;-55
2022/03/03 10:03:57;;;;;;;;;;;25.00;37.60;;;;;;5067539;28;20587;-55
2022/03/03 10:06:23;;;;;;;;;;;25.00;37.60;;;;;;5073705;28;19928;-55
2022/03/03 10:08:49;;;;;;;;;;;25.00;37.70;;;;;;5073239;28;20287;-55
2022/03/03 10:11:15;;;;;;;;;;;25.00;37.60;;;;;;5074260;28;19915;-55
2022/03/03 10:13:47;;;;;;;;;;;25.00;37.60;;;;;;5063009;28;20028;-55
2022/03/03 10:16:18;;;;;;;;;;;25.00;37.60;;;;;;5060886;28;19937;-55
2022/03/03 10:18:48;;;;;;;;;;;25.00;37.60;;;;;;5057918;28;19983;-55
2022/03/03 10:21:14;;;;;;;;;;;25.00;37.60;;;;;;5058189;28;19989;-55
2022/03/03 10:23:39;;;;;;;;;;;25.00;37.60;;;;;;5067955;28;20390;-55
2022/03/03 10:26:05;;;;;;;;;;;25.00;37.60;;;;;;5074344;28;20274;-55
2022/03/03 10:28:32;;;;;;;;;;;25.00;37.60;;;;;;5061531;28;19916;-55
2022/03/03 10:31:04;;;;;;;;;;;25.00;37.60;;;;;;5069975;28;20353;-54
2022/03/03 10:33:30;;;;;;;;;;;25.00;37.60;;;;;;5062634;28;19913;-55
2022/03/03 10:36:14;;;;;;;;;;;25.00;37.60;;;;;;5069954;28;20007;-56
2022/03/03 10:38:47;;;;;;;;;;;25.00;37.60;;;;;;5068438;28;20416;-56
2022/03/03 10:41:31;;;;;;;;;;;25.00;37.60;;;;;;5058448;28;19943;-54
2022/03/03 10:43:57;;;;;;;;;;;25.00;37.60;;;;;;5062886;28;19963;-54
2022/03/03 10:46:22;;;;;;;;;;;25.00;37.60;;;;;;5063712;28;20003;-54
2022/03/03 10:48:48;;;;;;;;;;;25.00;37.60;;;;;;5060765;28;20011;-55
2022/03/03 10:51:14;;;;;;;;;;;25.10;37.70;;;;;;5061259;28;19921;-55
2022/03/03 10:53:39;;;;;;;;;;;25.10;37.70;;;;;;5061582;28;20395;-55
2022/03/03 10:56:14;;;;;;;;;;;25.10;37.70;;;;;;5062496;28;19913;-54
2022/03/03 10:58:46;;;;;;;;;;;25.10;37.50;;;;;;5063575;28;20380;-54
2022/03/03 11:01:11;;;;;;;;;;;25.10;37.50;;;;;;5062247;28;19921;-54
2022/03/03 11:03:37;;;;;;;;;;;25.10;37.40;;;;;;5060504;28;19912;-54
2022/03/03 11:06:03;;;;;;;;;;;25.10;37.50;;;;;;5061966;28;20329;-55
2022/03/03 11:08:28;;;;;;;;;;;25.10;37.50;;;;;;5060735;28;19936;-54
2022/03/03 11:10:53;;;;;;;;;;;25.10;37.40;;;;;;5060847;28;19959;-54
2022/03/03 11:13:19;;;;;;;;;;;25.20;37.30;;;;;;5055355;28;19920;-54
2022/03/03 11:15:44;;;;;;;;;;;25.20;37.30;;;;;;5060587;28;20046;-54
2022/03/03 11:18:10;;;;;;;;;;;25.20;37.30;;;;;;5059735;28;19943;-54
2022/03/03 11:20:35;;;;;;;;;;;25.20;37.30;;;;;;5068414;28;19962;-54
2022/03/03 11:23:01;;;;;;;;;;;25.20;37.20;;;;;;5068500;28;19921;-54
2022/03/03 11:25:32;;;;;;;;;;;25.20;37.10;;;;;;5071448;28;19916;-54
2022/03/03 11:28:13;;;;;;;;;;;25.20;37.10;;;;;;5067789;28;19966;-54
2022/03/03 11:30:38;;;;;;;;;;;25.20;37.20;;;;;;5074523;28;19912;-54
2022/03/03 11:33:26;;;;;;;;;;;25.10;37.30;;;;;;5071873;28;19963;-54
2022/03/03 11:35:54;;;;;;;;;;;25.20;37.40;;;;;;5070334;28;19912;-54
2022/03/03 11:38:19;;;;;;;;;;;25.10;37.70;;;;;;5069278;28;20373;-54
2022/03/03 11:40:51;;;;;;;;;;;25.10;37.70;;;;;;5067544;28;19920;-54
2022/03/03 11:43:17;;;;;;;;;;;25.10;37.70;;;;;;5070419;28;19955;-54
2022/03/03 11:45:49;;;;;;;;;;;25.10;37.70;;;;;;5072253;28;19970;-54
2022/03/03 11:48:21;;;;;;;;;;;25.10;37.90;;;;;;5068056;28;22352;-55
2022/03/03 11:50:47;;;;;;;;;;;25.00;37.90;;;;;;5061714;28;19916;-54
2022/03/03 11:53:18;;;;;;;;;;;25.00;38.00;;;;;;5063343;28;19920;-54
2022/03/03 11:55:47;;;;;;;;;;;25.00;38.00;;;;;;5068371;28;19913;-54
2022/03/03 11:58:16;;;;;;;;;;;25.00;37.90;;;;;;5070013;28;20383;-55
2022/03/03 12:00:43;;;;;;;;;;;25.00;37.90;;;;;;5070703;28;19976;-54
2022/03/03 12:03:09;;;;;;;;;;;24.90;37.90;;;;;;5066778;28;19951;-54
2022/03/03 12:05:35;;;;;;;;;;;24.90;38.00;;;;;;5071043;28;19932;-54
2022/03/03 12:08:03;;;;;;;;;;;25.00;37.90;;;;;;5070550;28;19917;-54
2022/03/03 12:10:28;;;;;;;;;;;25.00;37.80;;;;;;5071415;28;19923;-54
2022/03/03 12:13:14;;;;;;;;;;;25.00;37.60;;;;;;5071243;28;19912;-54
2022/03/03 12:15:40;;;;;;;;;;;25.00;37.60;;;;;;5056258;28;19920;-54
2022/03/03 12:18:05;;;;;;;;;;;25.10;37.70;;;;;;5070031;28;22433;-56
2022/03/03 12:20:32;;;;;;;;;;;25.10;37.70;;;;;;5068843;28;19920;-54
2022/03/03 12:23:10;;;;;;;;;;;25.10;37.70;;;;;;5070513;28;19920;-54
2022/03/03 12:25:47;;;;;;;;;;;25.10;37.70;;;;;;5071963;28;19917;-54
2022/03/03 12:28:13;;;;;;;;;;;25.20;37.70;;;;;;5070508;28;19913;-54
2022/03/03 12:30:45;;;;;;;;;;;25.20;37.70;;;;;;5072170;28;19919;-54
2022/03/03 12:33:23;;;;;;;;;;;25.10;37.70;;;;;;5070517;28;19916;-54
2022/03/03 12:35:49;;;;;;;;;;;25.10;37.70;;;;;;5067033;28;19987;-54
2022/03/03 12:38:14;;;;;;;;;;;25.10;37.70;;;;;;5068053;28;19913;-54
2022/03/03 12:40:40;;;;;;;;;;;25.10;37.70;;;;;;5069723;28;19939;-54
2022/03/03 12:43:19;;;;;;;;;;;25.00;37.90;;;;;;5071468;28;19988;-54
2022/03/03 12:45:45;;;;;;;;;;;25.00;38.00;;;;;;5072181;28;20007;-54
2022/03/03 12:48:11;;;;;;;;;;;24.90;38.00;;;;;;5071608;28;19974;-54
2022/03/03 12:50:37;;;;;;;;;;;24.90;38.00;;;;;;5072881;28;19938;-55
2022/03/03 12:53:04;;;;;;;;;;;25.00;38.00;;;;;;5069128;28;20402;-55
2022/03/03 12:55:31;;;;;;;;;;;24.90;37.90;;;;;;5071333;28;20386;-55
2022/03/03 12:57:57;;;;;;;;;;;25.00;37.90;;;;;;5069676;28;20007;-54
2022/03/03 13:00:23;;;;;;;;;;;25.00;37.80;;;;;;5070881;28;19921;-55
2022/03/03 13:02:49;;;;;;;;;;;24.90;37.70;;;;;;5070255;28;19921;-54
2022/03/03 13:05:27;;;;;;;;;;;24.90;37.90;;;;;;5069252;28;20395;-54
2022/03/03 13:07:52;;;;;;;;;;;25.00;37.80;;;;;;5064975;28;20015;-54
2022/03/03 13:10:17;;;;;;;;;;;25.00;37.60;;;;;;5070321;28;19991;-55
2022/03/03 13:12:44;;;;;;;;;;;25.10;37.60;;;;;;5069633;28;19917;-55
2022/03/03 13:15:09;;;;;;;;;;;25.20;37.40;;;;;;5070102;28;20003;-54
2022/03/03 13:17:35;;;;;;;;;;;25.30;37.20;;;;;;5061286;28;19993;-55
2022/03/03 13:20:03;;;;;;;;;;;25.40;37.10;;;;;;5065376;28;19917;-54
2022/03/03 13:22:29;;;;;;;;;;;25.50;37.00;;;;;;5068878;28;20356;-55
2022/03/03 13:25:12;;;;;;;;;;;25.60;37.00;;;;;;5071493;28;19912;-55
2022/03/03 13:27:44;;;;;;;;;;;25.70;36.60;;;;;;5069228;28;19912;-54
2022/03/03 13:30:10;;;;;;;;;;;25.80;36.40;;;;;;5072199;28;20291;-56
2022/03/03 13:32:49;;;;;;;;;;;25.90;36.20;;;;;;5072175;28;19935;-56
2022/03/03 13:35:14;;;;;;;;;;;25.90;36.00;;;;;;5068728;28;19912;-55
2022/03/03 13:37:40;;;;;;;;;;;26.00;36.20;;;;;;5067260;28;19919;-56
2022/03/03 13:40:22;;;;;;;;;;;26.00;36.30;;;;;;5068424;28;19924;-56
2022/03/03 13:42:52;;;;;;;;;;;26.00;36.30;;;;;;5068617;28;19952;-56
2022/03/03 13:45:31;;;;;;;;;;;26.10;36.20;;;;;;5070978;28;19978;-55
2022/03/03 13:48:00;;;;;;;;;;;26.20;36.30;;;;;;5067904;28;19920;-56
2022/03/03 13:50:26;;;;;;;;;;;26.20;36.20;;;;;;5069888;28;19916;-56
2022/03/03 13:52:51;;;;;;;;;;;26.20;36.10;;;;;;5065801;28;19920;-56
2022/03/03 13:55:17;;;;;;;;;;;26.20;35.90;;;;;;5069520;28;19947;-56
2022/03/03 13:57:46;;;;;;;;;;;26.20;35.90;;;;;;5066145;28;20026;-56
2022/03/03 14:00:19;;;;;;;;;;;26.20;35.90;;;;;;5063230;28;20003;-56
2022/03/03 14:02:50;;;;;;;;;;;26.20;35.90;;;;;;5075864;28;19912;-54
2022/03/03 14:05:16;;;;;;;;;;;26.10;35.90;;;;;;5070063;28;20014;-55
2022/03/03 14:07:48;;;;;;;;;;;26.10;36.00;;;;;;5075647;28;19912;-56
2022/03/03 14:10:13;;;;;;;;;;;26.10;36.00;;;;;;5072304;28;19916;-56
2022/03/03 14:12:39;;;;;;;;;;;26.10;36.20;;;;;;5070669;28;20376;-56
2022/03/03 14:15:05;;;;;;;;;;;26.10;36.20;;;;;;5071831;28;20383;-56
2022/03/03 14:17:30;;;;;;;;;;;26.10;36.30;;;;;;5076119;28;20027;-56